createdAt,value
2017-11-24T00:00:46.857Z,64.77
2017-11-24T00:01:46.725Z,63.67
2017-11-24T00:02:46.599Z,63.76
2017-11-24T00:03:46.468Z,65.25
2017-11-24T00:04:46.340Z,66.00
2017-11-24T00:05:46.212Z,66.09
2017-11-24T00:06:46.082Z,66.00
2017-11-24T00:07:45.955Z,65.25
2017-11-24T00:08:45.822Z,65.44
2017-11-24T00:09:45.694Z,65.06
2017-11-24T00:10:45.568Z,65.53
2017-11-24T00:11:45.435Z,65.25
2017-11-24T00:12:45.310Z,64.39
2017-11-24T00:13:45.180Z,64.68
2017-11-24T00:14:45.052Z,64.30
2017-11-24T00:15:44.918Z,64.68
2017-11-24T00:16:44.792Z,64.01
2017-11-24T00:17:44.669Z,64.01
2017-11-24T00:18:44.537Z,63.95
2017-11-24T00:19:44.405Z,63.76
2017-11-24T00:20:44.273Z,63.76
2017-11-24T00:21:44.149Z,63.95
2017-11-24T00:22:44.016Z,63.76
2017-11-24T00:23:43.888Z,64.04
2017-11-24T00:24:43.759Z,64.81
2017-11-24T00:25:43.632Z,64.33
2017-11-24T00:26:43.503Z,64.49
2017-11-24T00:27:43.372Z,64.42
2017-11-24T00:28:43.247Z,64.42
2017-11-24T00:29:43.117Z,64.61
2017-11-24T00:30:42.987Z,64.30
2017-11-24T00:31:42.856Z,64.49
2017-11-24T00:32:42.728Z,65.25
2017-11-24T00:33:42.602Z,65.53
2017-11-24T00:34:42.477Z,65.63
2017-11-24T00:35:42.345Z,65.53
2017-11-24T00:36:42.214Z,65.53
2017-11-24T00:37:42.085Z,65.25
2017-11-24T00:38:41.955Z,65.44
2017-11-24T00:39:41.825Z,65.47
2017-11-24T00:40:41.698Z,65.25
2017-11-24T00:41:41.570Z,65.06
2017-11-24T00:42:41.439Z,64.58
2017-11-24T00:43:41.311Z,64.39
2017-11-24T00:44:41.182Z,64.87
2017-11-24T00:45:41.053Z,62.34
2017-11-24T00:46:40.931Z,62.34
2017-11-24T00:47:40.793Z,63.95
2017-11-24T00:48:40.669Z,65.28
2017-11-24T00:49:40.540Z,66.47
2017-11-24T00:50:40.409Z,65.63
2017-11-24T00:51:40.280Z,65.63
2017-11-24T00:52:40.149Z,65.25
2017-11-24T00:53:40.025Z,64.04
2017-11-24T00:54:39.895Z,63.67
2017-11-24T00:55:39.766Z,63.76
2017-11-24T00:56:39.635Z,63.85
2017-11-24T00:57:39.506Z,62.82
2017-11-24T00:58:39.380Z,62.72
2017-11-24T00:59:39.248Z,63.67
2017-11-24T01:00:39.120Z,63.67
2017-11-24T01:01:38.993Z,64.04
2017-11-24T01:02:38.865Z,64.81
2017-11-24T01:03:38.732Z,63.76
2017-11-24T01:04:38.608Z,63.39
2017-11-24T01:05:38.474Z,64.04
2017-11-24T01:06:38.353Z,63.85
2017-11-24T01:07:38.219Z,64.81
2017-11-24T01:08:38.090Z,64.81
2017-11-24T01:09:37.962Z,64.68
2017-11-24T01:10:37.836Z,65.25
2017-11-24T01:11:37.701Z,64.77
2017-11-24T01:12:37.573Z,64.04
2017-11-24T01:13:37.445Z,64.14
2017-11-24T01:14:37.317Z,64.90
2017-11-24T01:15:37.189Z,65.28
2017-11-24T01:16:37.058Z,64.81
2017-11-24T01:17:36.929Z,64.71
2017-11-24T01:18:36.801Z,64.90
2017-11-24T01:19:36.672Z,64.61
2017-11-24T01:20:36.544Z,64.04
2017-11-24T01:21:36.414Z,63.29
2017-11-24T01:22:36.288Z,62.91
2017-11-24T01:23:36.160Z,61.77
2017-11-24T01:24:36.029Z,61.96
2017-11-24T01:25:35.897Z,62.91
2017-11-24T01:26:35.770Z,63.10
2017-11-24T01:27:35.642Z,62.82
2017-11-24T01:28:35.514Z,63.01
2017-11-24T01:29:35.391Z,63.20
2017-11-24T01:30:35.257Z,63.01
2017-11-24T01:31:35.126Z,63.10
2017-11-24T01:32:34.998Z,62.82
2017-11-24T01:33:34.883Z,63.95
2017-11-24T01:34:34.739Z,63.10
2017-11-24T01:35:34.610Z,63.01
2017-11-24T01:36:34.481Z,62.34
2017-11-24T01:37:34.355Z,62.91
2017-11-24T01:38:34.226Z,63.85
2017-11-24T01:39:34.097Z,64.14
2017-11-24T01:40:33.972Z,63.85
2017-11-24T01:41:33.841Z,63.20
2017-11-24T01:42:33.709Z,63.20
2017-11-24T01:43:33.582Z,62.62
2017-11-24T01:44:33.451Z,60.64
2017-11-24T01:45:33.333Z,60.35
2017-11-24T01:46:33.194Z,60.16
2017-11-24T01:47:33.065Z,59.97
2017-11-24T01:48:32.936Z,60.25
2017-11-24T01:49:32.809Z,60.16
2017-11-24T01:50:32.681Z,59.97
2017-11-24T01:51:32.552Z,59.41
2017-11-24T01:52:32.423Z,59.50
2017-11-24T01:53:32.293Z,60.44
2017-11-24T01:54:32.165Z,61.02
2017-11-24T01:55:32.035Z,61.77
2017-11-24T01:56:31.908Z,61.87
2017-11-24T01:57:31.785Z,63.73
2017-11-24T01:58:31.651Z,63.82
2017-11-24T01:59:31.521Z,64.87
2017-11-24T02:00:31.392Z,65.06
2017-11-24T02:01:31.265Z,65.91
2017-11-24T02:02:31.146Z,64.87
2017-11-24T02:03:31.006Z,64.68
2017-11-24T02:04:30.880Z,64.90
2017-11-24T02:05:30.749Z,62.82
2017-11-24T02:06:30.619Z,61.77
2017-11-24T02:07:30.494Z,61.77
2017-11-24T02:08:30.361Z,61.96
2017-11-24T02:09:30.230Z,63.39
2017-11-24T02:10:30.107Z,62.34
2017-11-24T02:11:29.974Z,60.44
2017-11-24T02:12:29.848Z,60.06
2017-11-24T02:13:29.717Z,60.54
2017-11-24T02:14:29.601Z,61.02
2017-11-24T02:15:29.459Z,60.99
2017-11-24T02:16:29.330Z,62.78
2017-11-24T02:17:29.204Z,64.68
2017-11-24T02:18:29.074Z,65.63
2017-11-24T02:19:28.945Z,66.00
2017-11-24T02:20:28.815Z,66.00
2017-11-24T02:21:28.685Z,66.00
2017-11-24T02:22:28.558Z,66.00
2017-11-24T02:23:28.430Z,65.63
2017-11-24T02:24:28.302Z,63.82
2017-11-24T02:25:28.173Z,62.34
2017-11-24T02:26:28.043Z,61.77
2017-11-24T02:27:27.916Z,62.82
2017-11-24T02:28:27.786Z,63.20
2017-11-24T02:29:27.660Z,62.82
2017-11-24T02:30:27.530Z,64.20
2017-11-24T02:31:27.407Z,64.39
2017-11-24T02:32:27.269Z,66.00
2017-11-24T02:33:27.141Z,65.63
2017-11-24T02:34:27.011Z,65.53
2017-11-24T02:35:26.881Z,63.73
2017-11-24T02:36:26.757Z,63.64
2017-11-24T02:37:26.624Z,62.97
2017-11-24T02:38:26.498Z,64.01
2017-11-24T02:39:26.366Z,64.01
2017-11-24T02:40:26.235Z,63.92
2017-11-24T02:41:26.108Z,63.73
2017-11-24T02:42:25.979Z,63.07
2017-11-24T02:43:25.854Z,64.11
2017-11-24T02:44:25.723Z,64.68
2017-11-24T02:45:25.594Z,64.20
2017-11-24T02:46:25.463Z,64.01
2017-11-24T02:47:25.335Z,64.39
2017-11-24T02:48:25.206Z,64.68
2017-11-24T02:49:25.076Z,64.11
2017-11-24T02:50:24.953Z,64.77
2017-11-24T02:51:24.825Z,63.82
2017-11-24T02:52:24.691Z,63.01
2017-11-24T02:53:24.564Z,62.24
2017-11-24T02:54:24.438Z,61.77
2017-11-24T02:55:24.301Z,62.15
2017-11-24T02:56:24.180Z,62.91
2017-11-24T02:57:24.046Z,64.20
2017-11-24T02:58:23.915Z,64.58
2017-11-24T02:59:23.789Z,64.77
2017-11-24T03:00:23.659Z,64.77
2017-11-24T03:01:23.530Z,64.58
2017-11-24T03:02:23.398Z,64.77
2017-11-24T03:03:23.271Z,64.49
2017-11-24T03:04:23.141Z,63.64
2017-11-24T03:05:23.015Z,63.92
2017-11-24T03:06:22.883Z,63.64
2017-11-24T03:07:22.756Z,64.11
2017-11-24T03:08:22.628Z,64.77
2017-11-24T03:09:22.496Z,65.06
2017-11-24T03:10:22.367Z,64.77
2017-11-24T03:11:22.238Z,65.81
2017-11-24T03:12:22.108Z,65.34
2017-11-24T03:13:21.981Z,65.34
2017-11-24T03:14:21.853Z,64.77
2017-11-24T03:15:21.723Z,64.96
2017-11-24T03:16:21.594Z,64.30
2017-11-24T03:17:21.466Z,64.58
2017-11-24T03:18:21.335Z,63.82
2017-11-24T03:19:21.208Z,63.64
2017-11-24T03:20:21.080Z,63.64
2017-11-24T03:21:20.948Z,63.64
2017-11-24T03:22:20.821Z,64.11
2017-11-24T03:23:20.691Z,63.92
2017-11-24T03:24:20.562Z,62.02
2017-11-24T03:25:20.432Z,61.02
2017-11-24T03:26:20.303Z,60.92
2017-11-24T03:27:20.176Z,62.43
2017-11-24T03:28:20.045Z,62.31
2017-11-24T03:29:19.918Z,61.02
2017-11-24T03:30:19.791Z,61.11
2017-11-24T03:31:19.663Z,60.80
2017-11-24T03:32:19.531Z,62.02
2017-11-24T03:33:19.403Z,60.83
2017-11-24T03:34:19.271Z,61.18
2017-11-24T03:35:19.147Z,61.08
2017-11-24T03:36:19.014Z,62.59
2017-11-24T03:37:18.884Z,63.54
2017-11-24T03:38:18.758Z,64.58
2017-11-24T03:39:18.627Z,65.06
2017-11-24T03:40:18.507Z,64.39
2017-11-24T03:41:18.369Z,64.11
2017-11-24T03:42:18.241Z,64.68
2017-11-24T03:43:18.110Z,64.77
2017-11-24T03:44:17.980Z,63.73
2017-11-24T03:45:17.861Z,63.64
2017-11-24T03:46:17.723Z,63.26
2017-11-24T03:47:17.594Z,63.82
2017-11-24T03:48:17.465Z,64.11
2017-11-24T03:49:17.337Z,64.49
2017-11-24T03:50:17.210Z,64.68
2017-11-24T03:51:17.077Z,64.87
2017-11-24T03:52:16.949Z,65.15
2017-11-24T03:53:16.827Z,64.87
2017-11-24T03:54:16.694Z,64.68
2017-11-24T03:55:16.563Z,64.11
2017-11-24T03:56:16.434Z,63.73
2017-11-24T03:57:16.302Z,63.82
2017-11-24T03:58:16.174Z,63.16
2017-11-24T03:59:16.049Z,63.73
2017-11-24T04:00:15.915Z,63.01
2017-11-24T04:01:15.786Z,63.01
2017-11-24T04:02:15.659Z,63.54
2017-11-24T04:03:15.528Z,64.01
2017-11-24T04:04:15.400Z,64.68
2017-11-24T04:05:15.269Z,64.87
2017-11-24T04:06:15.140Z,65.06
2017-11-24T04:07:15.012Z,65.25
2017-11-24T04:08:14.884Z,65.63
2017-11-24T04:09:14.753Z,64.30
2017-11-24T04:10:14.627Z,64.77
2017-11-24T04:11:14.495Z,64.01
2017-11-24T04:12:14.370Z,64.11
2017-11-24T04:13:14.240Z,63.82
2017-11-24T04:14:14.108Z,63.82
2017-11-24T04:15:13.982Z,63.64
2017-11-24T04:16:13.860Z,63.64
2017-11-24T04:17:13.723Z,63.82
2017-11-24T04:18:13.601Z,64.01
2017-11-24T04:19:13.465Z,64.30
2017-11-24T04:20:13.336Z,63.82
2017-11-24T04:21:13.209Z,64.01
2017-11-24T04:22:13.077Z,64.68
2017-11-24T04:23:12.947Z,64.01
2017-11-24T04:24:12.823Z,63.82
2017-11-24T04:25:12.690Z,63.85
2017-11-24T04:26:12.561Z,63.85
2017-11-24T04:27:12.437Z,63.76
2017-11-24T04:28:12.303Z,63.85
2017-11-24T04:29:12.176Z,63.20
2017-11-24T04:30:12.047Z,62.82
2017-11-24T04:31:11.919Z,64.14
2017-11-24T04:32:11.787Z,63.85
2017-11-24T04:33:11.663Z,61.21
2017-11-24T04:34:11.530Z,60.54
2017-11-24T04:35:11.399Z,61.77
2017-11-24T04:36:11.272Z,62.34
2017-11-24T04:37:11.145Z,63.29
2017-11-24T04:38:11.015Z,62.97
2017-11-24T04:39:10.884Z,61.02
2017-11-24T04:40:10.760Z,60.35
2017-11-24T04:41:10.628Z,60.25
2017-11-24T04:42:10.500Z,60.35
2017-11-24T04:43:10.372Z,61.77
2017-11-24T04:44:10.242Z,64.87
2017-11-24T04:45:10.110Z,65.06
2017-11-24T04:46:09.985Z,65.34
2017-11-24T04:47:09.856Z,65.44
2017-11-24T04:48:09.728Z,63.73
2017-11-24T04:49:09.596Z,63.16
2017-11-24T04:50:09.472Z,62.88
2017-11-24T04:51:09.339Z,62.88
2017-11-24T04:52:09.210Z,63.16
2017-11-24T04:53:09.082Z,62.43
2017-11-24T04:54:08.954Z,61.83
2017-11-24T04:55:08.824Z,62.50
2017-11-24T04:56:08.693Z,62.21
2017-11-24T04:57:08.567Z,62.21
2017-11-24T04:58:08.438Z,62.43
2017-11-24T04:59:08.305Z,63.07
2017-11-24T05:00:08.187Z,63.73
2017-11-24T05:01:08.049Z,63.20
2017-11-24T05:02:07.921Z,63.01
2017-11-24T05:03:07.791Z,62.53
2017-11-24T05:04:07.663Z,62.91
2017-11-24T05:05:07.535Z,63.92
2017-11-24T05:06:07.406Z,63.82
2017-11-24T05:07:07.276Z,63.73
2017-11-24T05:08:07.145Z,63.64
2017-11-24T05:09:07.016Z,63.20
2017-11-24T05:10:06.886Z,61.65
2017-11-24T05:11:06.759Z,61.68
2017-11-24T05:12:06.635Z,61.65
2017-11-24T05:13:06.502Z,63.26
2017-11-24T05:14:06.369Z,62.72
2017-11-24T05:15:06.242Z,62.24
2017-11-24T05:16:06.111Z,62.72
2017-11-24T05:17:05.987Z,62.31
2017-11-24T05:18:05.854Z,63.07
2017-11-24T05:19:05.724Z,63.26
2017-11-24T05:20:05.609Z,62.88
2017-11-24T05:21:05.468Z,62.88
2017-11-24T05:22:05.338Z,62.88
2017-11-24T05:23:05.211Z,63.26
2017-11-24T05:24:05.080Z,63.07
2017-11-24T05:25:04.949Z,63.45
2017-11-24T05:26:04.822Z,64.01
2017-11-24T05:27:04.692Z,64.01
2017-11-24T05:28:04.562Z,64.01
2017-11-24T05:29:04.434Z,63.92
2017-11-24T05:30:04.305Z,63.92
2017-11-24T05:31:04.177Z,64.30
2017-11-24T05:32:04.055Z,63.73
2017-11-24T05:33:03.919Z,63.54
2017-11-24T05:34:03.791Z,64.39
2017-11-24T05:35:03.658Z,64.30
2017-11-24T05:36:03.530Z,64.77
2017-11-24T05:37:03.408Z,64.58
2017-11-24T05:38:03.272Z,64.49
2017-11-24T05:39:03.145Z,65.25
2017-11-24T05:40:03.022Z,64.68
2017-11-24T05:41:02.885Z,64.96
2017-11-24T05:42:02.758Z,64.39
2017-11-24T05:43:02.626Z,64.87
2017-11-24T05:44:02.497Z,64.87
2017-11-24T05:45:02.372Z,63.73
2017-11-24T05:46:02.240Z,64.11
2017-11-24T05:47:02.109Z,63.54
2017-11-24T05:48:01.981Z,63.92
2017-11-24T05:49:01.851Z,63.73
2017-11-24T05:50:01.724Z,63.64
2017-11-24T05:51:01.596Z,64.58
2017-11-24T05:52:01.463Z,64.39
2017-11-24T05:53:01.343Z,63.73
2017-11-24T05:54:01.209Z,63.54
2017-11-24T05:55:01.079Z,63.64
2017-11-24T05:56:00.947Z,63.92
2017-11-24T05:57:00.843Z,64.30
2017-11-24T05:58:00.688Z,64.39
2017-11-24T05:59:00.562Z,63.73
2017-11-24T06:00:00.433Z,64.11
2017-11-24T06:01:00.303Z,64.39
2017-11-24T06:02:00.174Z,63.92
2017-11-24T06:03:00.044Z,63.92
2017-11-24T06:03:59.914Z,64.01
2017-11-24T06:04:59.801Z,63.64
2017-11-24T06:05:59.659Z,63.64
2017-11-24T06:06:59.530Z,64.11
2017-11-24T06:07:59.399Z,64.01
2017-11-24T06:08:59.268Z,63.92
2017-11-24T06:09:59.138Z,64.96
2017-11-24T06:10:59.011Z,64.58
2017-11-24T06:11:58.883Z,63.82
2017-11-24T06:12:58.764Z,63.73
2017-11-24T06:13:58.623Z,64.68
2017-11-24T06:14:58.493Z,64.68
2017-11-24T06:15:58.365Z,64.20
2017-11-24T06:16:58.238Z,63.73
2017-11-24T06:17:58.109Z,63.20
2017-11-24T06:18:57.975Z,63.64
2017-11-24T06:19:57.850Z,63.73
2017-11-24T06:20:57.720Z,63.64
2017-11-24T06:21:57.591Z,63.73
2017-11-24T06:22:57.470Z,63.82
2017-11-24T06:23:57.332Z,62.78
2017-11-24T06:24:57.204Z,62.88
2017-11-24T06:25:57.076Z,63.95
2017-11-24T06:26:56.946Z,63.76
2017-11-24T06:27:56.817Z,63.76
2017-11-24T06:28:56.689Z,63.64
2017-11-24T06:29:56.566Z,64.01
2017-11-24T06:30:56.432Z,64.14
2017-11-24T06:31:56.299Z,64.14
2017-11-24T06:32:56.175Z,64.33
2017-11-24T06:33:56.044Z,64.33
2017-11-24T06:34:55.914Z,64.30
2017-11-24T06:35:55.784Z,64.68
2017-11-24T06:36:55.657Z,64.04
2017-11-24T06:37:55.525Z,63.39
2017-11-24T06:38:55.395Z,63.10
2017-11-24T06:39:55.269Z,63.48
2017-11-24T06:40:55.141Z,64.33
2017-11-24T06:41:55.008Z,65.00
2017-11-24T06:42:54.882Z,64.81
2017-11-24T06:43:54.752Z,63.95
2017-11-24T06:44:54.624Z,63.85
2017-11-24T06:45:54.494Z,63.01
2017-11-24T06:46:54.368Z,63.01
2017-11-24T06:47:54.237Z,63.20
2017-11-24T06:48:54.111Z,63.20
2017-11-24T06:49:53.979Z,63.10
2017-11-24T06:50:53.850Z,63.01
2017-11-24T06:51:53.717Z,63.10
2017-11-24T06:52:53.594Z,62.34
2017-11-24T06:53:53.465Z,62.15
2017-11-24T06:54:53.332Z,62.05
2017-11-24T06:55:53.202Z,63.20
2017-11-24T06:56:53.075Z,63.29
2017-11-24T06:57:52.947Z,63.29
2017-11-24T06:58:52.819Z,63.10
2017-11-24T06:59:52.691Z,63.10
2017-11-24T07:00:52.560Z,61.96
2017-11-24T07:01:52.430Z,62.53
2017-11-24T07:02:52.302Z,62.53
2017-11-24T07:03:52.176Z,62.82
2017-11-24T07:04:52.047Z,63.01
2017-11-24T07:05:51.914Z,61.77
2017-11-24T07:06:51.790Z,61.58
2017-11-24T07:07:51.662Z,62.34
2017-11-24T07:08:51.530Z,62.53
2017-11-24T07:09:51.407Z,62.91
2017-11-24T07:10:51.271Z,62.24
2017-11-24T07:11:51.145Z,62.72
2017-11-24T07:12:51.020Z,63.29
2017-11-24T07:13:50.892Z,63.67
2017-11-24T07:14:50.760Z,63.85
2017-11-24T07:15:50.630Z,63.20
2017-11-24T07:16:50.502Z,63.20
2017-11-24T07:17:50.373Z,64.81
2017-11-24T07:18:50.244Z,65.56
2017-11-24T07:19:50.113Z,65.28
2017-11-24T07:20:49.985Z,65.28
2017-11-24T07:21:49.859Z,65.09
2017-11-24T07:22:49.729Z,65.47
2017-11-24T07:23:49.600Z,65.28
2017-11-24T07:24:49.473Z,65.66
2017-11-24T07:25:49.346Z,65.28
2017-11-24T07:26:49.216Z,64.04
2017-11-24T07:27:49.086Z,63.20
2017-11-24T07:28:48.960Z,63.39
2017-11-24T07:29:48.831Z,63.10
2017-11-24T07:30:48.700Z,62.34
2017-11-24T07:31:48.573Z,62.82
2017-11-24T07:32:48.446Z,63.20
2017-11-24T07:33:48.318Z,63.04
2017-11-24T07:34:48.186Z,62.94
2017-11-24T07:35:48.061Z,62.08
2017-11-24T07:36:47.932Z,62.18
2017-11-24T07:37:47.801Z,62.37
2017-11-24T07:38:47.672Z,62.28
2017-11-24T07:39:47.546Z,62.94
2017-11-24T07:40:47.419Z,63.13
2017-11-24T07:41:47.288Z,63.89
2017-11-24T07:42:47.160Z,63.70
2017-11-24T07:43:47.032Z,61.99
2017-11-24T07:44:46.904Z,62.37
2017-11-24T07:45:46.783Z,61.80
2017-11-24T07:46:46.646Z,61.61
2017-11-24T07:47:46.517Z,61.05
2017-11-24T07:48:46.390Z,61.24
2017-11-24T07:49:46.285Z,61.52
2017-11-24T07:50:46.133Z,61.99
2017-11-24T07:51:46.006Z,61.80
2017-11-24T07:52:45.875Z,61.71
2017-11-24T07:53:45.751Z,61.14
2017-11-24T07:54:45.620Z,60.95
2017-11-24T07:55:45.499Z,60.19
2017-11-24T07:56:45.365Z,60.13
2017-11-24T07:57:45.240Z,61.17
2017-11-24T07:58:45.109Z,62.75
2017-11-24T07:59:44.980Z,63.89
2017-11-24T08:00:44.851Z,63.89
2017-11-24T08:01:44.726Z,63.98
2017-11-24T08:02:44.597Z,63.89
2017-11-24T08:03:44.470Z,63.98
2017-11-24T08:04:44.340Z,64.17
2017-11-24T08:05:44.217Z,63.60
2017-11-24T08:06:44.081Z,63.98
2017-11-24T08:07:43.956Z,63.89
2017-11-24T08:08:43.831Z,63.98
2017-11-24T08:09:43.701Z,63.89
2017-11-24T08:10:43.574Z,65.03
2017-11-24T08:11:43.447Z,64.17
2017-11-24T08:12:43.317Z,63.51
2017-11-24T08:13:43.192Z,63.70
2017-11-24T08:14:43.062Z,63.79
2017-11-24T08:15:42.934Z,63.04
2017-11-24T08:16:42.806Z,63.04
2017-11-24T08:17:42.684Z,62.66
2017-11-24T08:18:42.551Z,61.90
2017-11-24T08:19:42.426Z,60.95
2017-11-24T08:20:42.297Z,60.28
2017-11-24T08:21:42.167Z,60.47
2017-11-24T08:22:42.042Z,60.67
2017-11-24T08:23:41.933Z,60.67
2017-11-24T08:24:41.788Z,60.67
2017-11-24T08:25:41.660Z,60.19
2017-11-24T08:26:41.533Z,60.89
2017-11-24T08:27:41.405Z,60.22
2017-11-24T08:28:41.278Z,59.08
2017-11-24T08:29:41.149Z,58.89
2017-11-24T08:30:41.029Z,61.08
2017-11-24T08:31:40.896Z,61.46
2017-11-24T08:32:40.774Z,61.83
2017-11-24T08:33:40.641Z,61.01
2017-11-24T08:34:40.512Z,60.44
2017-11-24T08:35:40.389Z,59.97
2017-11-24T08:36:40.259Z,59.11
2017-11-24T08:37:40.133Z,58.92
2017-11-24T08:38:40.022Z,59.02
2017-11-24T08:39:39.880Z,59.78
2017-11-24T08:40:39.752Z,60.25
2017-11-24T08:41:39.626Z,58.64
2017-11-24T08:42:39.505Z,58.83
2017-11-24T08:43:39.372Z,58.83
2017-11-24T08:44:39.242Z,57.50
2017-11-24T08:45:39.127Z,57.12
2017-11-24T08:46:38.990Z,56.36
2017-11-24T08:47:38.864Z,55.38
2017-11-24T08:48:38.734Z,53.39
2017-11-24T08:49:38.612Z,52.19
2017-11-24T08:50:38.481Z,52.95
2017-11-24T08:51:38.354Z,52.85
2017-11-24T08:52:38.229Z,52.09
2017-11-24T08:53:38.101Z,52.09
2017-11-24T08:54:37.974Z,51.52
2017-11-24T08:55:37.899Z,52.19
2017-11-24T08:56:37.722Z,51.14
2017-11-24T08:57:37.597Z,49.74
2017-11-24T08:58:37.475Z,48.99
2017-11-24T08:59:37.344Z,49.46
2017-11-24T09:00:37.219Z,50.22
2017-11-24T09:01:37.088Z,50.60
2017-11-24T09:02:36.964Z,50.31
2017-11-24T09:03:36.837Z,49.74
2017-11-24T09:04:36.710Z,49.37
2017-11-24T09:05:36.583Z,49.37
2017-11-24T09:06:36.457Z,49.74
2017-11-24T09:07:36.331Z,49.84
2017-11-24T09:08:36.208Z,49.65
2017-11-24T09:09:36.076Z,49.55
2017-11-24T09:10:35.951Z,49.46
2017-11-24T09:11:35.824Z,49.74
2017-11-24T09:12:35.700Z,49.84
2017-11-24T09:13:35.572Z,50.31
2017-11-24T09:14:35.454Z,49.74
2017-11-24T09:15:35.323Z,49.27
2017-11-24T09:16:35.196Z,48.54
2017-11-24T09:17:35.070Z,48.44
2017-11-24T09:18:34.944Z,48.75
2017-11-24T09:19:34.817Z,48.94
2017-11-24T09:20:34.692Z,47.52
2017-11-24T09:21:34.567Z,47.42
2017-11-24T09:22:34.441Z,47.34
2017-11-24T09:23:34.320Z,48.01
2017-11-24T09:24:34.192Z,46.28
2017-11-24T09:25:34.067Z,45.80
2017-11-24T09:26:33.938Z,45.61
2017-11-24T09:27:33.822Z,44.31
2017-11-24T09:28:33.689Z,43.64
2017-11-24T09:29:33.566Z,43.26
2017-11-24T09:30:33.440Z,43.64
2017-11-24T09:31:33.315Z,44.78
2017-11-24T09:32:33.193Z,45.07
2017-11-24T09:33:33.068Z,45.92
2017-11-24T09:34:32.946Z,45.54
2017-11-24T09:35:32.817Z,45.07
2017-11-24T09:36:32.693Z,43.93
2017-11-24T09:37:32.569Z,42.21
2017-11-24T09:38:32.442Z,42.21
2017-11-24T09:39:32.325Z,42.12
2017-11-24T09:40:32.195Z,40.88
2017-11-24T09:41:32.070Z,41.07
2017-11-24T09:42:31.948Z,42.71
2017-11-24T09:43:31.824Z,45.47
2017-11-24T09:44:31.698Z,46.99
2017-11-24T09:45:31.576Z,45.95
2017-11-24T09:46:31.456Z,45.85
2017-11-24T09:47:31.343Z,45.85
2017-11-24T09:48:31.203Z,44.90
2017-11-24T09:49:31.087Z,44.80
2017-11-24T09:50:30.956Z,44.42
2017-11-24T09:51:30.830Z,44.33
2017-11-24T09:52:30.709Z,43.28
2017-11-24T09:53:30.583Z,42.43
2017-11-24T09:54:30.460Z,41.85
2017-11-24T09:55:30.338Z,41.95
2017-11-24T09:56:30.212Z,42.07
2017-11-24T09:57:30.092Z,41.97
2017-11-24T09:58:29.967Z,41.71
2017-11-24T09:59:29.843Z,40.20
2017-11-24T10:00:29.719Z,39.73
2017-11-24T10:01:29.623Z,40.41
2017-11-24T10:02:29.474Z,39.95
2017-11-24T10:03:29.352Z,39.40
2017-11-24T10:04:29.230Z,38.64
2017-11-24T10:05:29.112Z,37.32
2017-11-24T10:06:29.033Z,37.80
2017-11-24T10:07:29.038Z,35.99
2017-11-24T10:08:28.816Z,34.36
2017-11-24T10:09:28.689Z,34.08
2017-11-24T10:10:28.505Z,35.02
2017-11-24T10:11:28.378Z,37.84
2017-11-24T10:12:28.285Z,39.27
2017-11-24T10:13:28.168Z,40.22
2017-11-24T10:14:28.076Z,40.58
2017-11-24T10:15:27.888Z,41.06
2017-11-24T10:16:27.768Z,41.44
2017-11-24T10:17:27.648Z,41.72
2017-11-24T10:18:27.526Z,41.89
2017-11-24T10:19:27.406Z,41.52
2017-11-24T10:20:27.281Z,41.52
2017-11-24T10:21:27.168Z,41.99
2017-11-24T10:22:27.037Z,41.88
2017-11-24T10:23:26.916Z,42.83
2017-11-24T10:24:26.795Z,43.59
2017-11-24T10:25:26.674Z,43.87
2017-11-24T10:26:26.548Z,43.87
2017-11-24T10:27:26.429Z,42.92
2017-11-24T10:28:26.305Z,42.73
2017-11-24T10:29:26.187Z,42.64
2017-11-24T10:30:26.059Z,42.18
2017-11-24T10:31:25.940Z,41.71
2017-11-24T10:32:25.816Z,42.28
2017-11-24T10:33:25.693Z,42.30
2017-11-24T10:34:25.574Z,42.77
2017-11-24T10:35:25.447Z,42.13
2017-11-24T10:36:25.326Z,41.46
2017-11-24T10:37:25.203Z,41.00
2017-11-24T10:38:25.081Z,39.86
2017-11-24T10:39:24.959Z,39.10
2017-11-24T10:40:24.837Z,38.45
2017-11-24T10:41:24.715Z,37.38
2017-11-24T10:42:24.595Z,35.87
2017-11-24T10:43:24.473Z,35.78
2017-11-24T10:44:24.350Z,35.59
2017-11-24T10:45:24.229Z,35.38
2017-11-24T10:46:24.108Z,38.05
2017-11-24T10:47:23.986Z,38.98
2017-11-24T10:48:23.865Z,38.79
2017-11-24T10:49:23.743Z,39.17
2017-11-24T10:50:23.620Z,39.08
2017-11-24T10:51:23.497Z,40.11
2017-11-24T10:52:23.377Z,41.63
2017-11-24T10:53:23.258Z,41.63
2017-11-24T10:54:23.135Z,42.20
2017-11-24T10:55:23.013Z,42.01
2017-11-24T10:56:22.893Z,42.87
2017-11-24T10:57:22.769Z,43.42
2017-11-24T10:58:22.650Z,43.71
2017-11-24T10:59:22.526Z,43.32
2017-11-24T11:00:22.406Z,43.51
2017-11-24T11:01:22.281Z,43.51
2017-11-24T11:02:22.160Z,43.42
2017-11-24T11:03:22.037Z,43.71
2017-11-24T11:04:21.918Z,44.18
2017-11-24T11:05:21.793Z,43.80
2017-11-24T11:06:21.670Z,43.42
2017-11-24T11:07:21.551Z,42.56
2017-11-24T11:08:21.426Z,43.51
2017-11-24T11:09:21.306Z,43.90
2017-11-24T11:10:21.178Z,43.32
2017-11-24T11:11:21.070Z,43.61
2017-11-24T11:12:20.936Z,44.27
2017-11-24T11:13:20.812Z,44.94
2017-11-24T11:14:20.696Z,45.04
2017-11-24T11:15:20.569Z,45.70
2017-11-24T11:16:20.447Z,46.37
2017-11-24T11:17:20.324Z,46.94
2017-11-24T11:18:20.199Z,47.42
2017-11-24T11:19:20.077Z,47.44
2017-11-24T11:20:19.955Z,45.80
2017-11-24T11:21:19.834Z,44.94
2017-11-24T11:22:19.710Z,46.18
2017-11-24T11:23:19.587Z,46.84
2017-11-24T11:24:19.465Z,47.13
2017-11-24T11:25:19.342Z,47.23
2017-11-24T11:26:19.224Z,47.49
2017-11-24T11:27:19.095Z,48.63
2017-11-24T11:28:18.976Z,49.30
2017-11-24T11:29:18.853Z,48.82
2017-11-24T11:30:18.729Z,47.02
2017-11-24T11:31:18.604Z,46.92
2017-11-24T11:32:18.483Z,47.02
2017-11-24T11:33:18.360Z,47.42
2017-11-24T11:34:18.239Z,46.37
2017-11-24T11:35:18.115Z,46.28
2017-11-24T11:36:17.995Z,45.80
2017-11-24T11:37:17.887Z,44.75
2017-11-24T11:38:17.746Z,44.59
2017-11-24T11:39:17.625Z,44.49
2017-11-24T11:40:17.504Z,44.68
2017-11-24T11:41:17.391Z,43.91
2017-11-24T11:42:17.256Z,43.54
2017-11-24T11:43:17.137Z,42.49
2017-11-24T11:44:17.015Z,41.44
2017-11-24T11:45:16.897Z,40.58
2017-11-24T11:46:16.768Z,40.58
2017-11-24T11:47:16.647Z,40.37
2017-11-24T11:48:16.526Z,40.87
2017-11-24T11:49:16.404Z,40.87
2017-11-24T11:50:16.281Z,42.30
2017-11-24T11:51:16.160Z,41.63
2017-11-24T11:52:16.034Z,41.63
2017-11-24T11:53:15.914Z,42.13
2017-11-24T11:54:15.791Z,44.32
2017-11-24T11:55:15.669Z,46.42
2017-11-24T11:56:15.546Z,47.37
2017-11-24T11:57:15.439Z,48.04
2017-11-24T11:58:15.302Z,48.52
2017-11-24T11:59:15.179Z,49.08
2017-11-24T12:00:15.057Z,49.18
2017-11-24T12:01:14.934Z,48.68
2017-11-24T12:02:14.815Z,48.71
2017-11-24T12:03:14.699Z,48.52
2017-11-24T12:04:14.570Z,46.89
2017-11-24T12:05:14.446Z,47.47
2017-11-24T12:06:14.322Z,47.28
2017-11-24T12:07:14.201Z,44.51
2017-11-24T12:08:14.080Z,44.80
2017-11-24T12:09:13.956Z,46.23
2017-11-24T12:10:13.834Z,45.56
2017-11-24T12:11:13.714Z,45.10
2017-11-24T12:12:13.589Z,45.68
2017-11-24T12:13:13.466Z,44.92
2017-11-24T12:14:13.345Z,43.87
2017-11-24T12:15:13.221Z,43.58
2017-11-24T12:16:13.102Z,42.36
2017-11-24T12:17:12.981Z,42.17
2017-11-24T12:18:12.857Z,43.41
2017-11-24T12:19:12.735Z,43.60
2017-11-24T12:20:12.614Z,42.08
2017-11-24T12:21:12.492Z,41.98
2017-11-24T12:22:12.373Z,41.96
2017-11-24T12:23:12.248Z,42.34
2017-11-24T12:24:12.126Z,42.05
2017-11-24T12:25:12.005Z,42.34
2017-11-24T12:26:11.883Z,42.91
2017-11-24T12:27:11.760Z,43.49
2017-11-24T12:28:11.638Z,43.03
2017-11-24T12:29:11.517Z,42.53
2017-11-24T12:30:11.396Z,43.01
2017-11-24T12:31:11.272Z,42.91
2017-11-24T12:32:11.159Z,44.25
2017-11-24T12:33:11.039Z,44.34
2017-11-24T12:34:10.910Z,44.44
2017-11-24T12:35:10.788Z,44.53
2017-11-24T12:36:10.665Z,44.65
2017-11-24T12:37:10.544Z,44.37
2017-11-24T12:38:10.423Z,43.41
2017-11-24T12:39:10.300Z,43.32
2017-11-24T12:40:10.180Z,42.74
2017-11-24T12:41:10.059Z,42.72
2017-11-24T12:42:09.936Z,42.82
2017-11-24T12:43:09.819Z,43.39
2017-11-24T12:44:09.691Z,43.68
2017-11-24T12:45:09.570Z,43.58
2017-11-24T12:46:09.449Z,44.15
2017-11-24T12:47:09.327Z,43.94
2017-11-24T12:48:09.207Z,43.65
2017-11-24T12:49:09.082Z,44.34
2017-11-24T12:50:08.962Z,44.13
2017-11-24T12:51:08.842Z,44.53